map of LAL home
LAL - Airport
Location
City:  Lakeland, Florida, United States
Name:Lakeland Linder International Airport
ICAO:KLAL
IATA:LAL
FAA LID:LAL

Details
Type:Airport (Part 139 Class I)
Use:Public/Civil
Latitude:2759'15"N (27.987636)
Longitude:8201'08"W (-82.018992)
Datum:WGS 1984
Elevation:142 ft (43 m)
Variation:5.94W (WMM2015v2 magnetic declination)
-0.07 annual change
Runways:3
Longest:8499 × 150 ft (2590 × 45.5 m), paved

Time
Time Zone:UTC-5 (DST-4)
Local Time:

Weather
METAR:KLAL 041350Z 07003KT 10SM BKN008 17/16 A3008
TAF:KLAL 041122Z 0412/0512 VRB04KT 4SM BR OVC005
TEMPO 0412/0414 1SM BR OVC002
FM041500 05005KT P6SM BKN025
FM042000 35004KT P6SM FEW050 BKN200
FM050200 VRB03KT P6SM FEW050 SCT200

Related Locations
Nearby:
Farthest:USL: 11488 mi / 18489 km
Useless Loop, WA, AU

Find:

   beyond  
but within

Other Information
Maps:
NOTAMs:
Links:
Sources:

  
  • flag of United States
  • flag of Florida
  

Airport Diagram

Airport diagram for LAL

Airport diagram PDF from FAA

Sectional Chart

Flight Planning
at skyvector.com

Satellite Image

Google Maps Satellite view

 

Copyright © 2004-2019 Karl L. Swartz. All rights reserved.
The Great Circle Mapper name and logo are trademarks of the Great Circle Mapper.
All other trademarks mentioned herein belong to their respective owners.
Please see credits for attibutions and further copyright information.

  Follow gcmap on Facebook Follow gcmap on Twitter GCmap on LinkedIn

hCard Microformat

Geo Microformat